sensor_id;sensor_type;location;lat;lon;timestamp;temperature;humidity
16064;DHT22;8136;53.172;8.256;2023-06-19T00:00:38;23.10;99.90
16064;DHT22;8136;53.172;8.256;2023-06-19T00:03:07;23.10;99.90
16064;DHT22;8136;53.172;8.256;2023-06-19T00:05:34;23.00;99.90
16064;DHT22;8136;53.172;8.256;2023-06-19T00:08:01;23.00;99.90
16064;DHT22;8136;53.172;8.256;2023-06-19T00:10:29;22.90;99.90
16064;DHT22;8136;53.172;8.256;2023-06-19T00:12:55;22.90;99.90
16064;DHT22;8136;53.172;8.256;2023-06-19T00:15:22;22.90;99.90
16064;DHT22;8136;53.172;8.256;2023-06-19T00:17:49;22.90;99.90
16064;DHT22;8136;53.172;8.256;2023-06-19T00:20:17;22.80;99.90
16064;DHT22;8136;53.172;8.256;2023-06-19T00:22:44;22.70;99.90
16064;DHT22;8136;53.172;8.256;2023-06-19T00:25:17;22.70;99.90
16064;DHT22;8136;53.172;8.256;2023-06-19T00:27:43;22.70;99.90
16064;DHT22;8136;53.172;8.256;2023-06-19T00:30:11;22.60;99.90
16064;DHT22;8136;53.172;8.256;2023-06-19T00:32:38;22.50;99.90
16064;DHT22;8136;53.172;8.256;2023-06-19T00:35:12;22.60;99.90
16064;DHT22;8136;53.172;8.256;2023-06-19T00:37:41;22.50;99.90
16064;DHT22;8136;53.172;8.256;2023-06-19T00:40:18;22.50;99.90
16064;DHT22;8136;53.172;8.256;2023-06-19T00:42:46;22.50;99.90
16064;DHT22;8136;53.172;8.256;2023-06-19T00:45:12;22.50;99.90
16064;DHT22;8136;53.172;8.256;2023-06-19T00:47:39;22.40;99.90
16064;DHT22;8136;53.172;8.256;2023-06-19T00:50:06;22.50;99.90
16064;DHT22;8136;53.172;8.256;2023-06-19T00:52:34;22.40;99.90
16064;DHT22;8136;53.172;8.256;2023-06-19T00:55:03;22.50;99.90
16064;DHT22;8136;53.172;8.256;2023-06-19T00:57:31;22.40;99.90
16064;DHT22;8136;53.172;8.256;2023-06-19T00:59:58;22.40;99.90
16064;DHT22;8136;53.172;8.256;2023-06-19T01:02:25;22.40;99.90
16064;DHT22;8136;53.172;8.256;2023-06-19T01:04:53;22.40;99.90
16064;DHT22;8136;53.172;8.256;2023-06-19T01:07:25;22.40;99.90
16064;DHT22;8136;53.172;8.256;2023-06-19T01:09:59;22.30;99.90
16064;DHT22;8136;53.172;8.256;2023-06-19T01:12:33;22.30;99.90
16064;DHT22;8136;53.172;8.256;2023-06-19T01:15:02;22.30;99.90
16064;DHT22;8136;53.172;8.256;2023-06-19T01:17:31;22.30;99.90
16064;DHT22;8136;53.172;8.256;2023-06-19T01:19:59;22.20;99.90
16064;DHT22;8136;53.172;8.256;2023-06-19T01:22:28;22.20;99.90
16064;DHT22;8136;53.172;8.256;2023-06-19T01:24:55;22.10;99.90
16064;DHT22;8136;53.172;8.256;2023-06-19T01:27:23;22.10;99.90
16064;DHT22;8136;53.172;8.256;2023-06-19T01:29:51;22.10;99.90
16064;DHT22;8136;53.172;8.256;2023-06-19T01:32:22;22.10;99.90
16064;DHT22;8136;53.172;8.256;2023-06-19T01:34:50;22.10;99.90
16064;DHT22;8136;53.172;8.256;2023-06-19T01:37:18;22.10;99.90
16064;DHT22;8136;53.172;8.256;2023-06-19T01:39:48;22.00;99.90
16064;DHT22;8136;53.172;8.256;2023-06-19T01:42:15;22.10;99.90
16064;DHT22;8136;53.172;8.256;2023-06-19T01:44:42;22.10;99.90
16064;DHT22;8136;53.172;8.256;2023-06-19T01:47:10;22.10;99.90
16064;DHT22;8136;53.172;8.256;2023-06-19T01:49:38;22.10;99.90
16064;DHT22;8136;53.172;8.256;2023-06-19T01:52:05;22.10;99.90
16064;DHT22;8136;53.172;8.256;2023-06-19T01:54:32;22.20;99.90
16064;DHT22;8136;53.172;8.256;2023-06-19T01:57:00;22.20;99.90
16064;DHT22;8136;53.172;8.256;2023-06-19T01:59:27;22.30;99.90
16064;DHT22;8136;53.172;8.256;2023-06-19T02:01:54;22.30;99.90
16064;DHT22;8136;53.172;8.256;2023-06-19T02:04:21;22.30;99.90
16064;DHT22;8136;53.172;8.256;2023-06-19T02:06:48;22.20;99.90
16064;DHT22;8136;53.172;8.256;2023-06-19T02:09:14;22.20;99.90
16064;DHT22;8136;53.172;8.256;2023-06-19T02:11:41;22.30;99.90
16064;DHT22;8136;53.172;8.256;2023-06-19T02:14:10;22.30;99.90
16064;DHT22;8136;53.172;8.256;2023-06-19T02:16:37;22.30;99.90
16064;DHT22;8136;53.172;8.256;2023-06-19T02:19:05;22.20;99.90
16064;DHT22;8136;53.172;8.256;2023-06-19T02:21:32;22.20;99.90
16064;DHT22;8136;53.172;8.256;2023-06-19T02:23:59;22.20;99.90
16064;DHT22;8136;53.172;8.256;2023-06-19T02:26:26;22.20;99.90
16064;DHT22;8136;53.172;8.256;2023-06-19T02:28:54;22.30;99.90
16064;DHT22;8136;53.172;8.256;2023-06-19T02:31:22;22.30;99.90
16064;DHT22;8136;53.172;8.256;2023-06-19T02:33:49;22.20;99.90
16064;DHT22;8136;53.172;8.256;2023-06-19T02:36:16;22.20;99.90
16064;DHT22;8136;53.172;8.256;2023-06-19T02:38:45;22.20;99.90
16064;DHT22;8136;53.172;8.256;2023-06-19T02:41:25;22.10;99.90
16064;DHT22;8136;53.172;8.256;2023-06-19T02:43:52;22.00;99.90
16064;DHT22;8136;53.172;8.256;2023-06-19T02:46:19;22.00;99.90
16064;DHT22;8136;53.172;8.256;2023-06-19T02:48:47;22.00;99.90
16064;DHT22;8136;53.172;8.256;2023-06-19T02:51:13;22.00;99.90
16064;DHT22;8136;53.172;8.256;2023-06-19T02:53:40;22.10;99.90
16064;DHT22;8136;53.172;8.256;2023-06-19T02:56:07;22.10;99.90
16064;DHT22;8136;53.172;8.256;2023-06-19T02:58:34;22.00;99.90
16064;DHT22;8136;53.172;8.256;2023-06-19T03:01:03;22.10;99.90
16064;DHT22;8136;53.172;8.256;2023-06-19T03:03:32;22.10;99.90
16064;DHT22;8136;53.172;8.256;2023-06-19T03:06:04;22.20;99.90
16064;DHT22;8136;53.172;8.256;2023-06-19T03:08:31;22.20;99.90
16064;DHT22;8136;53.172;8.256;2023-06-19T03:10:58;22.20;99.90
16064;DHT22;8136;53.172;8.256;2023-06-19T03:13:25;22.20;99.90
16064;DHT22;8136;53.172;8.256;2023-06-19T03:15:51;22.20;99.90
16064;DHT22;8136;53.172;8.256;2023-06-19T03:18:18;22.20;99.90
16064;DHT22;8136;53.172;8.256;2023-06-19T03:20:45;22.20;99.90
16064;DHT22;8136;53.172;8.256;2023-06-19T03:23:13;22.20;99.90
16064;DHT22;8136;53.172;8.256;2023-06-19T03:25:40;22.20;99.90
16064;DHT22;8136;53.172;8.256;2023-06-19T03:28:08;22.30;99.90
16064;DHT22;8136;53.172;8.256;2023-06-19T03:30:35;22.20;99.90
16064;DHT22;8136;53.172;8.256;2023-06-19T03:33:01;22.20;99.90
16064;DHT22;8136;53.172;8.256;2023-06-19T03:35:28;22.20;99.90
16064;DHT22;8136;53.172;8.256;2023-06-19T03:37:55;22.30;99.90
16064;DHT22;8136;53.172;8.256;2023-06-19T03:40:23;22.30;99.90
16064;DHT22;8136;53.172;8.256;2023-06-19T03:42:50;22.20;99.90
16064;DHT22;8136;53.172;8.256;2023-06-19T03:45:16;22.20;99.90
16064;DHT22;8136;53.172;8.256;2023-06-19T03:47:43;22.20;99.90
16064;DHT22;8136;53.172;8.256;2023-06-19T03:50:10;22.20;99.90
16064;DHT22;8136;53.172;8.256;2023-06-19T03:52:37;22.20;99.90
16064;DHT22;8136;53.172;8.256;2023-06-19T03:55:04;22.20;99.90
16064;DHT22;8136;53.172;8.256;2023-06-19T03:57:32;22.10;99.90
16064;DHT22;8136;53.172;8.256;2023-06-19T03:59:59;22.10;99.90
16064;DHT22;8136;53.172;8.256;2023-06-19T04:02:26;22.10;99.90
16064;DHT22;8136;53.172;8.256;2023-06-19T04:04:53;22.10;99.90
16064;DHT22;8136;53.172;8.256;2023-06-19T04:07:20;22.10;99.90
16064;DHT22;8136;53.172;8.256;2023-06-19T04:09:46;22.10;99.90
16064;DHT22;8136;53.172;8.256;2023-06-19T04:12:13;22.10;99.90
16064;DHT22;8136;53.172;8.256;2023-06-19T04:14:41;22.10;99.90
16064;DHT22;8136;53.172;8.256;2023-06-19T04:17:08;22.00;99.90
16064;DHT22;8136;53.172;8.256;2023-06-19T04:19:37;22.10;99.90
16064;DHT22;8136;53.172;8.256;2023-06-19T04:22:04;22.10;99.90
16064;DHT22;8136;53.172;8.256;2023-06-19T04:24:40;22.10;99.90
16064;DHT22;8136;53.172;8.256;2023-06-19T04:27:07;22.10;99.90
16064;DHT22;8136;53.172;8.256;2023-06-19T04:29:34;22.10;99.90
16064;DHT22;8136;53.172;8.256;2023-06-19T04:32:06;22.10;99.90
16064;DHT22;8136;53.172;8.256;2023-06-19T04:34:36;22.10;99.90
16064;DHT22;8136;53.172;8.256;2023-06-19T04:37:07;22.20;99.90
16064;DHT22;8136;53.172;8.256;2023-06-19T04:39:34;22.10;99.90
16064;DHT22;8136;53.172;8.256;2023-06-19T04:42:00;22.10;99.90
16064;DHT22;8136;53.172;8.256;2023-06-19T04:44:27;22.10;99.90
16064;DHT22;8136;53.172;8.256;2023-06-19T04:46:55;22.10;99.90
16064;DHT22;8136;53.172;8.256;2023-06-19T04:49:28;22.10;99.90
16064;DHT22;8136;53.172;8.256;2023-06-19T04:51:56;22.10;99.90
16064;DHT22;8136;53.172;8.256;2023-06-19T04:54:25;22.10;99.90
16064;DHT22;8136;53.172;8.256;2023-06-19T04:56:52;22.20;99.90
16064;DHT22;8136;53.172;8.256;2023-06-19T04:59:19;22.20;99.90
16064;DHT22;8136;53.172;8.256;2023-06-19T05:01:46;22.20;99.90
16064;DHT22;8136;53.172;8.256;2023-06-19T05:04:13;22.20;99.90
16064;DHT22;8136;53.172;8.256;2023-06-19T05:06:41;22.30;99.90
16064;DHT22;8136;53.172;8.256;2023-06-19T05:09:09;22.30;99.90
16064;DHT22;8136;53.172;8.256;2023-06-19T05:11:36;22.40;99.90
16064;DHT22;8136;53.172;8.256;2023-06-19T05:14:03;22.30;99.90
16064;DHT22;8136;53.172;8.256;2023-06-19T05:16:31;22.30;99.90
16064;DHT22;8136;53.172;8.256;2023-06-19T05:18:58;22.40;99.90
16064;DHT22;8136;53.172;8.256;2023-06-19T05:21:34;22.40;99.90
16064;DHT22;8136;53.172;8.256;2023-06-19T05:24:02;22.40;99.90
16064;DHT22;8136;53.172;8.256;2023-06-19T05:26:29;22.30;99.90
16064;DHT22;8136;53.172;8.256;2023-06-19T05:28:58;22.40;99.90
16064;DHT22;8136;53.172;8.256;2023-06-19T05:31:25;22.40;99.90
16064;DHT22;8136;53.172;8.256;2023-06-19T05:33:52;22.40;99.90
16064;DHT22;8136;53.172;8.256;2023-06-19T05:36:18;22.50;99.90
16064;DHT22;8136;53.172;8.256;2023-06-19T05:38:46;22.50;99.90
16064;DHT22;8136;53.172;8.256;2023-06-19T05:41:16;22.50;99.90
16064;DHT22;8136;53.172;8.256;2023-06-19T05:43:43;22.60;99.90
16064;DHT22;8136;53.172;8.256;2023-06-19T05:46:10;22.60;99.90
16064;DHT22;8136;53.172;8.256;2023-06-19T05:48:37;22.70;99.90
16064;DHT22;8136;53.172;8.256;2023-06-19T05:51:04;22.70;99.90
16064;DHT22;8136;53.172;8.256;2023-06-19T05:53:30;22.70;99.90
16064;DHT22;8136;53.172;8.256;2023-06-19T05:55:57;22.60;99.90
16064;DHT22;8136;53.172;8.256;2023-06-19T05:58:26;22.60;99.90
16064;DHT22;8136;53.172;8.256;2023-06-19T06:00:52;22.60;99.90
16064;DHT22;8136;53.172;8.256;2023-06-19T06:03:23;22.70;99.90
16064;DHT22;8136;53.172;8.256;2023-06-19T06:05:50;22.70;99.90
16064;DHT22;8136;53.172;8.256;2023-06-19T06:08:17;22.60;99.90
16064;DHT22;8136;53.172;8.256;2023-06-19T06:10:44;22.80;99.90
16064;DHT22;8136;53.172;8.256;2023-06-19T06:13:11;22.80;99.90
16064;DHT22;8136;53.172;8.256;2023-06-19T06:15:39;22.90;99.90
16064;DHT22;8136;53.172;8.256;2023-06-19T06:18:06;22.90;99.90
16064;DHT22;8136;53.172;8.256;2023-06-19T06:20:33;22.90;99.90
16064;DHT22;8136;53.172;8.256;2023-06-19T06:22:59;22.90;99.90
16064;DHT22;8136;53.172;8.256;2023-06-19T06:25:26;23.00;99.90
16064;DHT22;8136;53.172;8.256;2023-06-19T06:27:53;23.00;99.90
16064;DHT22;8136;53.172;8.256;2023-06-19T06:30:20;22.90;99.90
16064;DHT22;8136;53.172;8.256;2023-06-19T06:32:48;23.00;99.90
16064;DHT22;8136;53.172;8.256;2023-06-19T06:35:15;23.00;99.90
16064;DHT22;8136;53.172;8.256;2023-06-19T06:37:42;23.10;99.90
16064;DHT22;8136;53.172;8.256;2023-06-19T06:40:10;23.10;99.90
16064;DHT22;8136;53.172;8.256;2023-06-19T06:42:36;23.20;99.90
16064;DHT22;8136;53.172;8.256;2023-06-19T06:45:05;23.20;99.90
16064;DHT22;8136;53.172;8.256;2023-06-19T06:47:32;23.20;99.90
16064;DHT22;8136;53.172;8.256;2023-06-19T06:50:00;23.20;99.90
16064;DHT22;8136;53.172;8.256;2023-06-19T06:52:27;23.30;99.90
16064;DHT22;8136;53.172;8.256;2023-06-19T06:54:56;23.30;99.90
16064;DHT22;8136;53.172;8.256;2023-06-19T06:57:22;23.40;99.90
16064;DHT22;8136;53.172;8.256;2023-06-19T06:59:49;23.40;99.90
16064;DHT22;8136;53.172;8.256;2023-06-19T07:02:16;23.50;99.90
16064;DHT22;8136;53.172;8.256;2023-06-19T07:04:43;23.60;99.90
16064;DHT22;8136;53.172;8.256;2023-06-19T07:07:11;23.60;99.90
16064;DHT22;8136;53.172;8.256;2023-06-19T07:09:38;23.60;99.90
16064;DHT22;8136;53.172;8.256;2023-06-19T07:12:05;23.70;99.90
16064;DHT22;8136;53.172;8.256;2023-06-19T07:14:32;23.70;99.90
16064;DHT22;8136;53.172;8.256;2023-06-19T07:16:59;23.80;99.90
16064;DHT22;8136;53.172;8.256;2023-06-19T07:19:27;24.00;99.90
16064;DHT22;8136;53.172;8.256;2023-06-19T07:21:55;23.90;99.90
16064;DHT22;8136;53.172;8.256;2023-06-19T07:24:24;24.00;99.90
16064;DHT22;8136;53.172;8.256;2023-06-19T07:26:51;24.00;99.90
16064;DHT22;8136;53.172;8.256;2023-06-19T07:29:18;24.20;99.90
16064;DHT22;8136;53.172;8.256;2023-06-19T07:31:47;24.20;99.90
16064;DHT22;8136;53.172;8.256;2023-06-19T07:34:14;24.30;99.90
16064;DHT22;8136;53.172;8.256;2023-06-19T07:36:41;24.30;99.90
16064;DHT22;8136;53.172;8.256;2023-06-19T07:39:08;24.40;99.90
16064;DHT22;8136;53.172;8.256;2023-06-19T07:41:36;24.40;99.90
16064;DHT22;8136;53.172;8.256;2023-06-19T07:44:04;24.50;99.90
16064;DHT22;8136;53.172;8.256;2023-06-19T07:46:30;24.50;99.90
16064;DHT22;8136;53.172;8.256;2023-06-19T07:48:57;24.60;99.90
16064;DHT22;8136;53.172;8.256;2023-06-19T07:51:24;24.60;99.90
16064;DHT22;8136;53.172;8.256;2023-06-19T07:53:50;24.70;99.90
16064;DHT22;8136;53.172;8.256;2023-06-19T07:56:17;24.50;99.90
16064;DHT22;8136;53.172;8.256;2023-06-19T07:58:45;24.50;99.90
16064;DHT22;8136;53.172;8.256;2023-06-19T08:01:12;24.60;99.90
16064;DHT22;8136;53.172;8.256;2023-06-19T08:03:39;24.60;99.90
16064;DHT22;8136;53.172;8.256;2023-06-19T08:06:06;24.60;99.90
16064;DHT22;8136;53.172;8.256;2023-06-19T08:08:32;24.60;99.90
16064;DHT22;8136;53.172;8.256;2023-06-19T08:10:59;24.70;99.90
16064;DHT22;8136;53.172;8.256;2023-06-19T08:13:26;24.70;99.90
16064;DHT22;8136;53.172;8.256;2023-06-19T08:15:54;24.60;99.90
16064;DHT22;8136;53.172;8.256;2023-06-19T08:18:21;24.60;99.90
16064;DHT22;8136;53.172;8.256;2023-06-19T08:20:47;24.70;99.90
16064;DHT22;8136;53.172;8.256;2023-06-19T08:23:14;24.80;99.90
16064;DHT22;8136;53.172;8.256;2023-06-19T08:25:41;24.80;99.90
16064;DHT22;8136;53.172;8.256;2023-06-19T08:28:08;24.80;99.90
16064;DHT22;8136;53.172;8.256;2023-06-19T08:30:34;24.80;99.90
16064;DHT22;8136;53.172;8.256;2023-06-19T08:33:03;25.00;99.90
16064;DHT22;8136;53.172;8.256;2023-06-19T08:35:29;25.10;99.90
16064;DHT22;8136;53.172;8.256;2023-06-19T08:37:56;25.00;99.90
16064;DHT22;8136;53.172;8.256;2023-06-19T08:40:23;24.90;99.90
16064;DHT22;8136;53.172;8.256;2023-06-19T08:42:51;24.80;99.90
16064;DHT22;8136;53.172;8.256;2023-06-19T08:45:19;24.80;99.90
16064;DHT22;8136;53.172;8.256;2023-06-19T08:47:47;24.90;99.90
16064;DHT22;8136;53.172;8.256;2023-06-19T08:50:15;24.90;99.90
16064;DHT22;8136;53.172;8.256;2023-06-19T08:52:42;25.00;99.90
16064;DHT22;8136;53.172;8.256;2023-06-19T08:55:09;25.00;99.90
16064;DHT22;8136;53.172;8.256;2023-06-19T08:57:37;24.80;99.90
16064;DHT22;8136;53.172;8.256;2023-06-19T09:00:05;24.80;99.90
16064;DHT22;8136;53.172;8.256;2023-06-19T09:02:37;24.80;99.90
16064;DHT22;8136;53.172;8.256;2023-06-19T09:05:15;24.80;99.90
16064;DHT22;8136;53.172;8.256;2023-06-19T09:07:43;24.70;99.90
16064;DHT22;8136;53.172;8.256;2023-06-19T09:10:16;24.60;99.90
16064;DHT22;8136;53.172;8.256;2023-06-19T09:12:43;24.60;99.90
16064;DHT22;8136;53.172;8.256;2023-06-19T09:15:14;24.70;99.90
16064;DHT22;8136;53.172;8.256;2023-06-19T09:17:41;24.60;99.90
16064;DHT22;8136;53.172;8.256;2023-06-19T09:20:08;24.60;99.90
16064;DHT22;8136;53.172;8.256;2023-06-19T09:22:38;24.60;99.90
16064;DHT22;8136;53.172;8.256;2023-06-19T09:25:06;24.60;99.90
16064;DHT22;8136;53.172;8.256;2023-06-19T09:27:35;24.60;99.90
16064;DHT22;8136;53.172;8.256;2023-06-19T09:30:04;24.80;99.90
16064;DHT22;8136;53.172;8.256;2023-06-19T09:32:31;24.90;99.90
16064;DHT22;8136;53.172;8.256;2023-06-19T09:34:58;25.00;99.90
16064;DHT22;8136;53.172;8.256;2023-06-19T09:37:27;25.30;99.90
16064;DHT22;8136;53.172;8.256;2023-06-19T09:39:57;25.40;99.90
16064;DHT22;8136;53.172;8.256;2023-06-19T09:42:27;25.40;99.90
16064;DHT22;8136;53.172;8.256;2023-06-19T09:44:59;25.10;99.90
16064;DHT22;8136;53.172;8.256;2023-06-19T09:47:30;25.10;99.90
16064;DHT22;8136;53.172;8.256;2023-06-19T09:49:57;25.00;99.90
16064;DHT22;8136;53.172;8.256;2023-06-19T09:52:25;25.00;99.90
16064;DHT22;8136;53.172;8.256;2023-06-19T09:54:55;24.90;99.90
16064;DHT22;8136;53.172;8.256;2023-06-19T09:57:23;24.80;99.90
16064;DHT22;8136;53.172;8.256;2023-06-19T09:59:52;24.60;99.90
16064;DHT22;8136;53.172;8.256;2023-06-19T10:02:22;24.60;99.90
16064;DHT22;8136;53.172;8.256;2023-06-19T10:04:51;24.60;99.90
16064;DHT22;8136;53.172;8.256;2023-06-19T10:07:20;24.50;99.90
16064;DHT22;8136;53.172;8.256;2023-06-19T10:10:03;24.30;99.90
16064;DHT22;8136;53.172;8.256;2023-06-19T10:12:39;24.30;99.90
16064;DHT22;8136;53.172;8.256;2023-06-19T10:15:19;24.20;99.90
16064;DHT22;8136;53.172;8.256;2023-06-19T10:17:48;24.00;99.90
16064;DHT22;8136;53.172;8.256;2023-06-19T10:20:24;23.70;99.90
16064;DHT22;8136;53.172;8.256;2023-06-19T10:22:52;23.50;99.90
16064;DHT22;8136;53.172;8.256;2023-06-19T10:25:24;23.50;99.90
16064;DHT22;8136;53.172;8.256;2023-06-19T10:27:53;23.40;99.90
16064;DHT22;8136;53.172;8.256;2023-06-19T10:30:20;23.30;99.90
16064;DHT22;8136;53.172;8.256;2023-06-19T10:32:47;23.40;99.90
16064;DHT22;8136;53.172;8.256;2023-06-19T10:35:16;23.30;99.90
16064;DHT22;8136;53.172;8.256;2023-06-19T10:37:43;23.40;99.90
16064;DHT22;8136;53.172;8.256;2023-06-19T10:40:11;23.60;99.90
16064;DHT22;8136;53.172;8.256;2023-06-19T10:42:39;23.70;99.90
16064;DHT22;8136;53.172;8.256;2023-06-19T10:45:09;23.70;99.90
16064;DHT22;8136;53.172;8.256;2023-06-19T10:47:38;23.60;99.90
16064;DHT22;8136;53.172;8.256;2023-06-19T10:53:11;23.60;99.90
16064;DHT22;8136;53.172;8.256;2023-06-19T10:55:38;23.50;99.90
16064;DHT22;8136;53.172;8.256;2023-06-19T10:58:06;23.50;99.90
16064;DHT22;8136;53.172;8.256;2023-06-19T11:00:33;23.60;99.90
16064;DHT22;8136;53.172;8.256;2023-06-19T11:03:00;23.60;99.90
16064;DHT22;8136;53.172;8.256;2023-06-19T11:05:28;23.60;99.90
16064;DHT22;8136;53.172;8.256;2023-06-19T11:07:56;23.50;99.90
16064;DHT22;8136;53.172;8.256;2023-06-19T11:10:23;23.60;99.90
16064;DHT22;8136;53.172;8.256;2023-06-19T11:12:53;23.60;99.90
16064;DHT22;8136;53.172;8.256;2023-06-19T11:15:29;23.50;99.90
16064;DHT22;8136;53.172;8.256;2023-06-19T11:17:56;23.50;99.90
16064;DHT22;8136;53.172;8.256;2023-06-19T11:20:23;23.50;99.90
16064;DHT22;8136;53.172;8.256;2023-06-19T11:22:55;23.50;99.90
16064;DHT22;8136;53.172;8.256;2023-06-19T11:25:23;23.50;99.90
16064;DHT22;8136;53.172;8.256;2023-06-19T11:27:51;23.60;99.90
16064;DHT22;8136;53.172;8.256;2023-06-19T11:30:32;23.60;99.90
16064;DHT22;8136;53.172;8.256;2023-06-19T11:32:59;23.60;99.90
16064;DHT22;8136;53.172;8.256;2023-06-19T11:35:35;23.60;99.90
16064;DHT22;8136;53.172;8.256;2023-06-19T11:38:06;23.50;99.90
16064;DHT22;8136;53.172;8.256;2023-06-19T11:40:44;23.40;99.90
16064;DHT22;8136;53.172;8.256;2023-06-19T11:43:23;23.40;99.90
16064;DHT22;8136;53.172;8.256;2023-06-19T11:46:01;23.20;99.90
16064;DHT22;8136;53.172;8.256;2023-06-19T11:48:31;23.30;99.90
16064;DHT22;8136;53.172;8.256;2023-06-19T11:50:58;23.50;99.90
16064;DHT22;8136;53.172;8.256;2023-06-19T11:53:29;23.60;99.90
16064;DHT22;8136;53.172;8.256;2023-06-19T11:56:01;23.70;99.90
16064;DHT22;8136;53.172;8.256;2023-06-19T11:58:36;23.70;99.90
16064;DHT22;8136;53.172;8.256;2023-06-19T12:01:05;23.80;99.90
16064;DHT22;8136;53.172;8.256;2023-06-19T12:03:32;23.70;99.90
16064;DHT22;8136;53.172;8.256;2023-06-19T12:05:59;23.70;99.90
16064;DHT22;8136;53.172;8.256;2023-06-19T12:08:25;23.60;99.90
16064;DHT22;8136;53.172;8.256;2023-06-19T12:10:52;23.60;99.90
16064;DHT22;8136;53.172;8.256;2023-06-19T12:13:19;23.60;99.90
16064;DHT22;8136;53.172;8.256;2023-06-19T12:15:46;23.50;99.90
16064;DHT22;8136;53.172;8.256;2023-06-19T12:18:14;23.50;99.90
16064;DHT22;8136;53.172;8.256;2023-06-19T12:20:41;23.70;99.90
16064;DHT22;8136;53.172;8.256;2023-06-19T12:23:07;23.90;99.90
16064;DHT22;8136;53.172;8.256;2023-06-19T12:25:37;24.20;99.90
16064;DHT22;8136;53.172;8.256;2023-06-19T12:28:04;24.50;99.90
16064;DHT22;8136;53.172;8.256;2023-06-19T12:30:42;24.70;99.90
16064;DHT22;8136;53.172;8.256;2023-06-19T12:33:09;24.70;99.90
16064;DHT22;8136;53.172;8.256;2023-06-19T12:35:40;24.90;99.90
16064;DHT22;8136;53.172;8.256;2023-06-19T12:38:07;25.20;99.90
16064;DHT22;8136;53.172;8.256;2023-06-19T12:40:35;25.30;99.90
16064;DHT22;8136;53.172;8.256;2023-06-19T12:43:02;25.50;99.90
16064;DHT22;8136;53.172;8.256;2023-06-19T12:45:30;25.70;99.90
16064;DHT22;8136;53.172;8.256;2023-06-19T12:47:58;26.00;99.90
16064;DHT22;8136;53.172;8.256;2023-06-19T12:50:26;26.10;99.90
16064;DHT22;8136;53.172;8.256;2023-06-19T12:52:54;26.20;99.90
16064;DHT22;8136;53.172;8.256;2023-06-19T12:55:21;26.30;99.90
16064;DHT22;8136;53.172;8.256;2023-06-19T12:57:48;26.30;99.90
16064;DHT22;8136;53.172;8.256;2023-06-19T13:00:15;26.30;99.90
16064;DHT22;8136;53.172;8.256;2023-06-19T13:02:44;26.30;99.90
16064;DHT22;8136;53.172;8.256;2023-06-19T13:05:11;26.10;99.90
16064;DHT22;8136;53.172;8.256;2023-06-19T13:07:38;26.10;99.90
16064;DHT22;8136;53.172;8.256;2023-06-19T13:10:07;26.10;99.90
16064;DHT22;8136;53.172;8.256;2023-06-19T13:12:35;26.30;99.90
16064;DHT22;8136;53.172;8.256;2023-06-19T13:15:17;26.10;99.90
16064;DHT22;8136;53.172;8.256;2023-06-19T13:17:59;26.10;99.90
16064;DHT22;8136;53.172;8.256;2023-06-19T13:20:25;26.10;99.90
16064;DHT22;8136;53.172;8.256;2023-06-19T13:23:02;26.00;99.90
16064;DHT22;8136;53.172;8.256;2023-06-19T13:25:30;26.10;99.90
16064;DHT22;8136;53.172;8.256;2023-06-19T13:28:06;26.20;99.90
16064;DHT22;8136;53.172;8.256;2023-06-19T13:30:43;26.30;99.90
16064;DHT22;8136;53.172;8.256;2023-06-19T13:33:10;26.40;99.90
16064;DHT22;8136;53.172;8.256;2023-06-19T13:35:37;26.60;99.90
16064;DHT22;8136;53.172;8.256;2023-06-19T13:38:17;26.70;99.90
16064;DHT22;8136;53.172;8.256;2023-06-19T13:40:46;26.80;99.90
16064;DHT22;8136;53.172;8.256;2023-06-19T13:43:24;27.00;99.90
16064;DHT22;8136;53.172;8.256;2023-06-19T13:46:00;27.20;99.90
16064;DHT22;8136;53.172;8.256;2023-06-19T13:48:31;27.30;99.90
16064;DHT22;8136;53.172;8.256;2023-06-19T13:50:59;27.40;99.90
16064;DHT22;8136;53.172;8.256;2023-06-19T13:53:36;27.40;99.90
16064;DHT22;8136;53.172;8.256;2023-06-19T13:56:10;27.30;99.90
16064;DHT22;8136;53.172;8.256;2023-06-19T13:58:37;27.40;99.90
16064;DHT22;8136;53.172;8.256;2023-06-19T14:01:06;27.30;99.90
16064;DHT22;8136;53.172;8.256;2023-06-19T14:03:37;27.30;99.90
16064;DHT22;8136;53.172;8.256;2023-06-19T14:06:08;27.40;99.90
16064;DHT22;8136;53.172;8.256;2023-06-19T14:08:35;27.50;99.90
16064;DHT22;8136;53.172;8.256;2023-06-19T14:11:09;27.60;99.90
16064;DHT22;8136;53.172;8.256;2023-06-19T14:13:43;27.50;99.90
16064;DHT22;8136;53.172;8.256;2023-06-19T14:16:12;27.40;99.90
16064;DHT22;8136;53.172;8.256;2023-06-19T14:18:43;27.40;99.90
16064;DHT22;8136;53.172;8.256;2023-06-19T14:21:15;27.50;99.90
16064;DHT22;8136;53.172;8.256;2023-06-19T14:23:48;27.50;99.90
16064;DHT22;8136;53.172;8.256;2023-06-19T14:26:17;27.50;99.90
16064;DHT22;8136;53.172;8.256;2023-06-19T14:28:46;27.50;99.90
16064;DHT22;8136;53.172;8.256;2023-06-19T14:31:13;27.50;99.90
16064;DHT22;8136;53.172;8.256;2023-06-19T14:33:51;27.60;99.90
16064;DHT22;8136;53.172;8.256;2023-06-19T14:36:45;27.80;99.90
16064;DHT22;8136;53.172;8.256;2023-06-19T14:39:12;27.80;99.90
16064;DHT22;8136;53.172;8.256;2023-06-19T14:41:41;28.00;99.90
16064;DHT22;8136;53.172;8.256;2023-06-19T14:44:26;27.90;99.80
16064;DHT22;8136;53.172;8.256;2023-06-19T14:46:53;28.00;99.90
16064;DHT22;8136;53.172;8.256;2023-06-19T14:49:20;27.90;99.00
16064;DHT22;8136;53.172;8.256;2023-06-19T14:51:47;27.90;99.70
16064;DHT22;8136;53.172;8.256;2023-06-19T14:54:14;28.00;99.80
16064;DHT22;8136;53.172;8.256;2023-06-19T14:56:58;28.10;99.40
16064;DHT22;8136;53.172;8.256;2023-06-19T14:59:25;28.20;99.30
16064;DHT22;8136;53.172;8.256;2023-06-19T15:01:52;28.20;98.80
16064;DHT22;8136;53.172;8.256;2023-06-19T15:04:19;28.20;99.70
16064;DHT22;8136;53.172;8.256;2023-06-19T15:06:46;28.30;99.10
16064;DHT22;8136;53.172;8.256;2023-06-19T15:09:16;28.30;99.90
16064;DHT22;8136;53.172;8.256;2023-06-19T15:11:52;28.30;99.10
16064;DHT22;8136;53.172;8.256;2023-06-19T15:14:23;28.30;98.80
16064;DHT22;8136;53.172;8.256;2023-06-19T15:16:50;28.30;99.40
16064;DHT22;8136;53.172;8.256;2023-06-19T15:19:17;28.40;99.10
16064;DHT22;8136;53.172;8.256;2023-06-19T15:21:55;28.60;98.80
16064;DHT22;8136;53.172;8.256;2023-06-19T15:24:22;28.70;98.00
16064;DHT22;8136;53.172;8.256;2023-06-19T15:26:49;28.80;98.10
16064;DHT22;8136;53.172;8.256;2023-06-19T15:29:16;28.90;97.70
16064;DHT22;8136;53.172;8.256;2023-06-19T15:31:48;29.00;97.60
16064;DHT22;8136;53.172;8.256;2023-06-19T15:34:15;29.00;97.40
16064;DHT22;8136;53.172;8.256;2023-06-19T15:36:42;28.90;97.00
16064;DHT22;8136;53.172;8.256;2023-06-19T15:39:12;28.90;97.10
16064;DHT22;8136;53.172;8.256;2023-06-19T15:42:04;28.80;96.90
16064;DHT22;8136;53.172;8.256;2023-06-19T15:44:43;28.60;97.30
16064;DHT22;8136;53.172;8.256;2023-06-19T15:47:12;28.70;97.40
16064;DHT22;8136;53.172;8.256;2023-06-19T15:49:39;28.90;97.20
16064;DHT22;8136;53.172;8.256;2023-06-19T15:52:06;29.00;96.80
16064;DHT22;8136;53.172;8.256;2023-06-19T15:54:33;29.00;97.00
16064;DHT22;8136;53.172;8.256;2023-06-19T15:57:08;29.30;96.50